Рассадник сумчатой русофобии - AntonTsAU (antontsau) wrote,
Рассадник сумчатой русофобии - AntonTsAU
antontsau

Февральские морозы начались!


Тьфу мня, опять 43 градуса.

METAR YSBK 010230Z AUTO 28005KT 9999 // NCD 43/17 Q1007 RMK
RF00.0/000.0

В такую погоду этот пылесос ни хрена не летает - +30 градусов относительно номы это примерно 3600фт высоты виртуального подъема. А оно на 6000 и так-то не тянет! На виртуальных же 9000 совсем жоппа должна быть.

Щас доеду до Банкстауна и посмотрим ирл.

Tags: Сидней, а как тот мамонт летает, все хреново, природное
Subscribe

  • Post a new comment

    Error

    Anonymous comments are disabled in this journal

    default userpic

    Your reply will be screened

    Your IP address will be recorded 

  • 13 comments